Time;durP1;ratioP1;P1;durP2;ratioP2;P2;SDS_P1;SDS_P2;PMS_P1;PMS_P2;Temp;Humidity;BMP_temperature;BMP_pressure;BME280_temperature;BME280_humidity;BME280_pressure;Samples;Min_cycle;Max_cycle;Signal;HPM_P1;HPM_P2
2022/07/11 00:00:33;;;;;;;8.23;3.70;;;;;;;22.52;100.00;102251.69;7395792;19;20029;-56
2022/07/11 00:03:02;;;;;;;12.63;3.83;;;;;;;22.61;100.00;102253.72;7400046;19;20022;-54
2022/07/11 00:05:31;;;;;;;8.43;3.92;;;;;;;22.29;100.00;102256.88;7393207;19;20026;-58
2022/07/11 00:08:00;;;;;;;8.02;4.00;;;;;;;22.28;100.00;102254.31;7398507;19;20023;-55
2022/07/11 00:10:29;;;;;;;8.25;3.90;;;;;;;22.20;100.00;102259.34;7397599;19;20052;-52
2022/07/11 00:13:00;;;;;;;8.55;3.50;;;;;;;22.26;100.00;102258.88;7398496;19;20380;-55
2022/07/11 00:15:29;;;;;;;9.00;3.85;;;;;;;22.38;100.00;102260.72;7395022;19;20160;-52
2022/07/11 00:17:58;;;;;;;10.20;3.78;;;;;;;22.66;100.00;102256.03;7396821;19;20742;-55
2022/07/11 00:20:27;;;;;;;10.02;3.67;;;;;;;22.71;100.00;102250.34;7394163;19;20401;-55
2022/07/11 00:22:56;;;;;;;6.28;3.28;;;;;;;22.84;100.00;102248.50;7398620;19;20017;-54
2022/07/11 00:25:25;;;;;;;10.50;3.80;;;;;;;22.69;100.00;102250.47;7393709;19;20021;-56
2022/07/11 00:27:54;;;;;;;11.27;4.10;;;;;;;22.54;100.00;102252.44;7396799;19;20018;-51
2022/07/11 00:30:25;;;;;;;9.65;3.50;;;;;;;22.55;100.00;102250.63;7396344;19;20004;-57
2022/07/11 00:32:54;;;;;;;7.18;3.67;;;;;;;22.66;100.00;102247.19;7398798;19;20022;-57
2022/07/11 00:35:23;;;;;;;7.53;4.53;;;;;;;21.92;100.00;102245.22;7393894;19;20348;-57
2022/07/11 00:37:52;;;;;;;11.32;5.60;;;;;;;22.12;100.00;102247.38;7398777;19;20018;-51
2022/07/11 00:40:21;;;;;;;10.55;5.18;;;;;;;22.29;100.00;102254.19;7393250;19;20014;-57
2022/07/11 00:42:50;;;;;;;9.88;3.70;;;;;;;22.47;100.00;102243.19;7396519;19;20030;-53
2022/07/11 00:45:19;;;;;;;9.02;3.45;;;;;;;22.64;100.00;102248.13;7393333;19;20344;-55
2022/07/11 00:47:50;;;;;;;8.60;3.88;;;;;;;22.67;100.00;102240.84;7395875;19;20491;-55
2022/07/11 00:50:19;;;;;;;7.90;3.75;;;;;;;22.84;100.00;102247.63;7394156;19;20011;-56
2022/07/11 00:52:48;;;;;;;7.88;3.80;;;;;;;22.79;100.00;102247.97;7397110;19;20017;-56
2022/07/11 00:55:17;;;;;;;8.48;3.70;;;;;;;22.73;100.00;102240.41;7398877;19;20019;-57
2022/07/11 00:57:47;;;;;;;9.70;4.20;;;;;;;22.74;100.00;102242.97;7396721;19;20491;-55
2022/07/11 01:00:17;;;;;;;8.80;3.60;;;;;;;22.79;100.00;102239.97;7397174;19;20015;-54
2022/07/11 01:02:46;;;;;;;9.52;3.63;;;;;;;22.84;100.00;102242.28;7398513;19;20011;-56
2022/07/11 01:05:17;;;;;;;11.27;3.78;;;;;;;22.84;100.00;102244.97;7396712;19;20360;-56
2022/07/11 01:07:46;;;;;;;7.07;3.20;;;;;;;22.86;100.00;102235.88;7395703;19;20582;-51
2022/07/11 01:10:15;;;;;;;5.97;3.25;;;;;;;22.82;100.00;102242.41;7393074;19;20015;-53
2022/07/11 01:12:44;;;;;;;9.85;3.50;;;;;;;22.70;100.00;102244.16;7396405;19;20328;-52
2022/07/11 01:15:16;;;;;;;7.97;3.65;;;;;;;22.80;100.00;102241.69;7396202;19;20014;-50
2022/07/11 01:17:45;;;;;;;11.40;3.30;;;;;;;22.83;100.00;102236.09;7396367;19;20015;-53
2022/07/11 01:20:14;;;;;;;7.18;2.47;;;;;;;22.80;100.00;102230.97;7396644;19;20017;-55
2022/07/11 01:22:49;;;;;;;9.73;2.47;;;;;;;22.92;100.00;102231.88;7395932;19;20014;-56
2022/07/11 01:25:32;;;;;;;5.15;2.80;;;;;;;22.99;100.00;102223.28;7395398;19;20074;-55
2022/07/11 01:28:02;;;;;;;;;;;;;;;23.02;100.00;102232.06;7395272;19;20043;-54
2022/07/11 01:30:32;;;;;;;7.25;2.60;;;;;;;23.03;100.00;102228.44;7395312;19;19982;-57
2022/07/11 01:33:01;;;;;;;4.60;2.00;;;;;;;23.02;100.00;102227.56;7396677;19;20018;-54
2022/07/11 01:35:32;;;;;;;4.78;2.38;;;;;;;22.98;100.00;102226.06;7391213;19;20015;-55
2022/07/11 01:38:01;;;;;;;5.40;2.30;;;;;;;22.98;100.00;102226.06;7395027;19;20047;-53
2022/07/11 01:40:32;;;;;;;5.28;2.10;;;;;;;22.89;100.00;102224.09;7392945;19;20018;-52
2022/07/11 01:43:01;;;;;;;5.32;2.20;;;;;;;22.83;100.00;102233.44;7395982;19;20014;-54
2022/07/11 01:45:30;;;;;;;4.10;2.33;;;;;;;22.73;100.00;102235.06;7396475;19;20428;-53
2022/07/11 01:47:59;;;;;;;5.38;2.25;;;;;;;22.78;100.00;102232.91;7396120;19;20011;-50
2022/07/11 01:50:28;;;;;;;5.88;2.20;;;;;;;22.81;100.00;102232.69;7394034;19;20024;-48
2022/07/11 01:52:56;;;;;;;5.18;2.22;;;;;;;22.76;100.00;102229.50;7396140;19;20025;-47
2022/07/11 01:55:25;;;;;;;5.03;2.53;;;;;;;22.83;100.00;102229.91;7396969;19;20014;-51
2022/07/11 01:57:57;;;;;;;5.28;2.45;;;;;;;22.69;100.00;102237.09;7394002;19;20022;-53
2022/07/11 02:00:29;;;;;;;6.25;2.38;;;;;;;22.82;100.00;102239.72;7391315;19;20011;-51
2022/07/11 02:02:58;;;;;;;6.85;2.08;;;;;;;22.86;100.00;102240.38;7393285;19;20027;-50
2022/07/11 02:05:27;;;;;;;5.47;2.28;;;;;;;22.78;100.00;102244.47;7393800;19;20324;-55
2022/07/11 02:10:37;;;;;;;9.43;2.50;;;;;;;22.85;100.00;102244.84;7393297;19;20031;-50
2022/07/11 02:13:09;;;;;;;5.72;1.85;;;;;;;22.84;100.00;102242.28;7394004;19;20022;-51
2022/07/11 02:15:38;;;;;;;4.13;1.80;;;;;;;22.75;100.00;102244.69;7392572;19;20011;-52
2022/07/11 02:18:07;;;;;;;3.25;1.88;;;;;;;22.79;100.00;102239.97;7394845;19;20030;-51
2022/07/11 02:20:36;;;;;;;4.57;1.80;;;;;;;22.81;100.00;102238.88;7390738;19;20007;-54
2022/07/11 02:23:05;;;;;;;6.28;2.25;;;;;;;22.73;100.00;102235.91;7394146;19;20022;-54
2022/07/11 02:25:38;;;;;;;5.97;2.40;;;;;;;22.72;100.00;102236.88;7391073;19;20025;-54
2022/07/11 02:28:11;;;;;;;4.90;2.00;;;;;;;22.72;100.00;102239.53;7392580;19;20074;-52
2022/07/11 02:30:41;;;;;;;5.85;2.20;;;;;;;22.73;100.00;102248.44;7390769;19;20010;-54
2022/07/11 02:33:13;;;;;;;5.75;2.42;;;;;;;22.72;100.00;102244.91;7394454;19;20029;-55
2022/07/11 02:35:42;;;;;;;6.78;2.03;;;;;;;22.70;100.00;102240.66;7391645;19;20026;-55
2022/07/11 02:38:14;;;;;;;6.00;1.90;;;;;;;22.69;100.00;102237.09;7391428;19;20014;-52
2022/07/11 02:40:44;;;;;;;3.67;1.90;;;;;;;22.69;100.00;102239.78;7389171;19;20498;-51
2022/07/11 02:43:16;;;;;;;5.65;1.98;;;;;;;22.71;100.00;102239.66;7392968;19;20018;-53
2022/07/11 02:45:45;;;;;;;4.93;2.50;;;;;;;22.80;100.00;102237.16;7390223;19;20026;-55
2022/07/11 02:48:14;;;;;;;7.97;2.08;;;;;;;22.80;100.00;102239.84;7393478;19;20017;-52
2022/07/11 02:50:43;;;;;;;5.18;2.10;;;;;;;22.76;100.00;102234.84;7388659;19;20026;-54
2022/07/11 02:53:12;;;;;;;9.00;2.45;;;;;;;22.67;100.00;102238.19;7393256;19;20030;-49
2022/07/11 02:55:41;;;;;;;4.40;2.00;;;;;;;22.60;100.00;102235.97;7391140;19;20018;-50
2022/07/11 02:58:10;;;;;;;7.32;2.50;;;;;;;22.59;100.00;102228.91;7392993;19;20052;-52
2022/07/11 03:00:41;;;;;;;6.55;2.70;;;;;;;22.58;100.00;102234.38;7391055;19;20713;-49
2022/07/11 03:03:10;;;;;;;5.93;2.35;;;;;;;22.50;100.00;102228.75;7392230;19;20014;-54
2022/07/11 03:05:39;;;;;;;5.63;2.03;;;;;;;22.55;100.00;102232.78;7390664;19;20014;-53
2022/07/11 03:08:08;;;;;;;5.97;2.35;;;;;;;22.51;100.00;102233.09;7392431;19;20356;-49
2022/07/11 03:10:37;;;;;;;7.43;2.40;;;;;;;22.38;100.00;102233.13;7389760;19;20038;-50
2022/07/11 03:13:05;;;;;;;4.95;2.10;;;;;;;22.35;100.00;102228.03;7392593;19;20011;-52
2022/07/11 03:15:34;;;;;;;7.65;2.25;;;;;;;22.41;100.00;102236.47;7393205;19;20611;-50
2022/07/11 03:18:07;;;;;;;4.03;2.30;;;;;;;22.38;100.00;102230.47;7392813;19;20015;-51
2022/07/11 03:20:36;;;;;;;5.07;2.17;;;;;;;22.36;100.00;102232.41;7390171;19;20017;-53
2022/07/11 03:23:05;;;;;;;7.30;2.30;;;;;;;22.36;100.00;102240.41;7390530;19;20015;-52
2022/07/11 03:25:33;;;;;;;6.63;2.35;;;;;;;22.32;100.00;102238.91;7390832;19;20018;-54
2022/07/11 03:28:02;;;;;;;3.58;2.40;;;;;;;22.29;100.00;102247.97;7401697;19;20616;-53
2022/07/11 03:30:31;;;;;;;6.22;2.65;;;;;;;22.22;100.00;102246.72;7395245;19;20022;-49
2022/07/11 03:33:00;;;;;;;4.03;2.40;;;;;;;22.23;100.00;102243.09;7397804;19;20015;-54
2022/07/11 03:35:43;;;;;;;6.45;2.63;;;;;;;22.22;100.00;102242.25;7398878;19;20500;-51
2022/07/11 03:38:15;;;;;;;6.15;2.50;;;;;;;22.29;100.00;102240.84;7398772;19;20479;-52
2022/07/11 03:40:44;;;;;;;7.17;2.97;;;;;;;22.28;100.00;102246.28;7398017;19;20044;-50
2022/07/11 03:43:13;;;;;;;5.82;2.45;;;;;;;22.28;100.00;102243.63;7398752;19;20026;-52
2022/07/11 03:45:42;;;;;;;7.28;2.50;;;;;;;22.23;100.00;102233.25;7395892;19;20014;-55
2022/07/11 03:48:11;;;;;;;3.22;2.35;;;;;;;22.22;100.00;102244.91;7401063;19;20507;-51
2022/07/11 03:50:42;;;;;;;4.63;2.35;;;;;;;22.25;100.00;102244.69;7395676;19;20030;-55
2022/07/11 03:53:11;;;;;;;4.28;2.40;;;;;;;22.28;100.00;102236.47;7400362;19;20022;-53
2022/07/11 03:55:41;;;;;;;6.75;2.85;;;;;;;22.25;100.00;102247.34;7397177;19;20021;-53
2022/07/11 03:58:10;;;;;;;5.50;2.88;;;;;;;22.23;100.00;102248.44;7400198;19;20462;-53
2022/07/11 04:00:38;;;;;;;2.97;2.15;;;;;;;22.23;100.00;102245.75;7397387;19;20014;-50
2022/07/11 04:03:08;;;;;;;7.75;2.50;;;;;;;22.25;100.00;102243.81;7374466;19;20026;-52
2022/07/11 04:05:37;;;;;;;6.47;2.60;;;;;;;22.25;100.00;102244.69;7395604;19;20018;-51
2022/07/11 04:08:08;;;;;;;4.78;2.63;;;;;;;22.27;100.00;102252.59;7399710;19;20018;-48
2022/07/11 04:10:37;;;;;;;6.38;2.70;;;;;;;22.25;100.00;102252.69;7397228;19;20474;-50
2022/07/11 04:13:06;;;;;;;4.70;2.55;;;;;;;22.25;100.00;102254.50;7398741;19;20089;-49
2022/07/11 04:15:35;;;;;;;6.43;3.08;;;;;;;22.21;100.00;102253.00;7399591;19;20021;-54
2022/07/11 04:18:04;;;;;;;4.50;2.90;;;;;;;22.18;100.00;102251.44;7400111;19;20014;-50
2022/07/11 04:20:33;;;;;;;6.78;3.10;;;;;;;22.16;100.00;102248.00;7393846;19;20025;-50
2022/07/11 04:23:02;;;;;;;5.68;2.97;;;;;;;22.14;100.00;102255.28;7399620;19;20014;-46
2022/07/11 04:25:35;;;;;;;8.77;3.45;;;;;;;22.02;100.00;102246.31;7398694;19;20014;-49
2022/07/11 04:28:03;;;;;;;;;;;;;;;22.05;100.00;102259.44;7397965;19;20417;-55
2022/07/11 04:30:32;;;;;;;6.03;3.10;;;;;;;21.97;100.00;102255.63;7397337;19;19922;-49
2022/07/11 04:33:01;;;;;;;5.07;3.00;;;;;;;21.95;100.00;102258.41;7400860;19;20355;-49
2022/07/11 04:35:31;;;;;;;5.60;2.75;;;;;;;22.11;100.00;102255.50;7396254;19;20010;-51
2022/07/11 04:38:00;;;;;;;4.80;2.22;;;;;;;22.04;100.00;102255.06;7394644;19;20010;-53
2022/07/11 04:40:28;;;;;;;4.72;2.20;;;;;;;22.11;100.00;102259.00;7394430;19;20116;-53
2022/07/11 04:43:00;;;;;;;5.32;2.20;;;;;;;22.11;100.00;102264.34;7399688;19;20515;-54
2022/07/11 04:45:29;;;;;;;3.42;1.90;;;;;;;22.08;100.00;102267.25;7396496;19;20014;-53
2022/07/11 04:47:59;;;;;;;4.32;2.05;;;;;;;22.00;100.00;102264.25;7395648;19;20015;-53
2022/07/11 04:50:28;;;;;;;4.80;1.90;;;;;;;21.91;100.00;102270.25;7393495;19;20022;-55
2022/07/11 04:52:57;;;;;;;4.00;2.10;;;;;;;21.87;100.00;102269.59;7398857;19;20025;-55
2022/07/11 04:55:26;;;;;;;5.70;2.28;;;;;;;21.86;100.00;102272.34;7399860;19;20038;-51
2022/07/11 04:57:55;;;;;;;3.05;2.17;;;;;;;21.83;100.00;102272.56;7398979;19;20018;-52
2022/07/11 05:00:26;;;;;;;5.80;2.60;;;;;;;21.87;100.00;102266.91;7396895;19;20407;-54
2022/07/11 05:02:55;;;;;;;3.60;1.95;;;;;;;21.86;100.00;102261.69;7399277;19;20010;-50
2022/07/11 05:05:24;;;;;;;4.05;2.10;;;;;;;21.91;100.00;102265.75;7394902;19;20030;-51
2022/07/11 05:07:53;;;;;;;3.85;2.22;;;;;;;21.98;100.00;102268.84;7399238;19;20010;-53
2022/07/11 05:10:22;;;;;;;3.95;2.15;;;;;;;22.05;100.00;102272.81;7393556;19;20022;-52
2022/07/11 05:12:51;;;;;;;3.10;1.98;;;;;;;22.15;100.00;102266.78;7399178;19;20480;-51
2022/07/11 05:15:20;;;;;;;8.13;2.17;;;;;;;22.04;100.00;102268.41;7399971;19;20014;-53
2022/07/11 05:17:51;;;;;;;3.85;2.08;;;;;;;22.04;100.00;102275.56;7397942;19;20468;-52
2022/07/11 05:20:20;;;;;;;3.88;1.98;;;;;;;22.08;100.00;102275.25;7392502;19;20022;-52
2022/07/11 05:22:49;;;;;;;4.80;2.20;;;;;;;22.20;100.00;102286.03;7397098;19;20021;-53
2022/07/11 05:25:18;;;;;;;3.03;2.05;;;;;;;22.27;100.00;102279.28;7395705;19;20463;-52
2022/07/11 05:27:47;;;;;;;4.72;2.13;;;;;;;22.30;100.00;102285.25;7396667;19;20010;-54
2022/07/11 05:30:16;;;;;;;3.75;1.65;;;;;;;22.29;100.00;102282.69;7393845;19;20025;-52
2022/07/11 05:32:45;;;;;;;2.88;1.80;;;;;;;22.30;100.00;102292.41;7396461;19;20015;-51
2022/07/11 05:35:16;;;;;;;3.15;2.20;;;;;;;22.37;100.00;102291.06;7397943;19;20030;-55
2022/07/11 05:37:45;;;;;;;10.40;2.30;;;;;;;22.44;100.00;102295.00;7398089;19;20018;-54
2022/07/11 05:40:14;;;;;;;3.83;1.80;;;;;;;22.37;100.00;102295.56;7395993;19;20022;-53
2022/07/11 05:42:43;;;;;;;3.13;1.80;;;;;;;22.35;100.00;102290.31;7399352;19;20014;-52
2022/07/11 05:45:13;;;;;;;2.85;1.90;;;;;;;22.36;100.00;102299.19;7394747;19;20081;-50
2022/07/11 05:47:41;;;;;;;2.63;1.80;;;;;;;22.38;100.00;102303.44;7396998;19;20034;-55
2022/07/11 05:50:11;;;;;;;2.45;1.70;;;;;;;22.34;100.00;102296.63;7391665;19;20022;-54
2022/07/11 05:52:42;;;;;;;4.70;2.22;;;;;;;22.24;100.00;102296.38;7394670;19;20029;-52
2022/07/11 05:55:11;;;;;;;4.43;2.20;;;;;;;22.22;100.00;102290.31;7393286;19;20471;-51
2022/07/11 05:57:40;;;;;;;4.70;2.30;;;;;;;22.22;100.00;102290.31;7396792;19;20050;-50
2022/07/11 06:00:11;;;;;;;2.63;1.77;;;;;;;22.24;100.00;102293.72;7390649;19;20018;-50
2022/07/11 06:02:40;;;;;;;2.92;2.05;;;;;;;22.27;100.00;102306.00;7396132;19;20033;-53
2022/07/11 06:05:11;;;;;;;3.28;1.90;;;;;;;22.29;100.00;102304.06;7394595;19;20011;-50
2022/07/11 06:10:24;;;;;;;3.45;2.08;;;;;;;22.35;100.00;102308.16;7391278;19;20026;-50
2022/07/11 06:12:53;;;;;;;2.72;2.00;;;;;;;22.27;100.00;102306.84;7396950;19;20018;-48
2022/07/11 06:15:22;;;;;;;3.42;2.30;;;;;;;22.19;100.00;102309.19;7393550;19;20404;-50
2022/07/11 06:17:50;;;;;;;2.33;2.00;;;;;;;22.11;100.00;102306.22;7395510;19;20479;-50
2022/07/11 06:20:19;;;;;;;1.83;1.60;;;;;;;22.08;100.00;102301.94;7393230;19;20019;-55
2022/07/11 06:22:53;;;;;;;2.58;1.70;;;;;;;22.10;100.00;102299.16;7396616;19;20014;-53
2022/07/11 06:25:22;;;;;;;3.38;1.83;;;;;;;22.15;100.00;102302.38;7394076;19;20014;-54
2022/07/11 06:27:51;;;;;;;2.80;1.80;;;;;;;22.22;100.00;102305.44;7395032;19;20010;-50
2022/07/11 06:30:20;;;;;;;2.28;1.70;;;;;;;22.23;100.00;102313.34;7389186;19;20021;-54
2022/07/11 06:32:49;;;;;;;2.08;1.40;;;;;;;22.19;100.00;102311.00;7396058;19;20499;-50
2022/07/11 06:35:17;;;;;;;1.70;1.38;;;;;;;22.41;100.00;102307.72;7393191;19;20006;-53
2022/07/11 06:37:46;;;;;;;2.75;1.20;;;;;;;22.51;100.00;102316.78;7393552;19;20364;-51
2022/07/11 06:40:18;;;;;;;1.75;1.60;;;;;;;22.52;100.00;102312.28;7391040;19;20133;-51
2022/07/11 06:42:47;;;;;;;1.50;1.10;;;;;;;22.58;100.00;102307.38;7397239;19;20019;-51
2022/07/11 06:45:16;;;;;;;1.92;1.08;;;;;;;22.40;100.00;102306.84;7397229;19;20049;-50
2022/07/11 06:47:45;;;;;;;1.45;1.20;;;;;;;22.44;100.00;102302.16;7394063;19;20018;-47
2022/07/11 06:50:14;;;;;;;4.25;1.55;;;;;;;22.37;100.00;102307.06;7391722;19;20011;-52
2022/07/11 06:52:43;;;;;;;7.25;1.50;;;;;;;22.44;100.00;102300.34;7395377;19;20017;-52
2022/07/11 06:55:12;;;;;;;1.70;1.30;;;;;;;22.50;100.00;102308.88;7392463;19;20097;-51
2022/07/11 06:57:43;;;;;;;2.67;1.20;;;;;;;22.51;100.00;102303.44;7396342;19;20018;-52
2022/07/11 07:00:13;;;;;;;1.30;1.02;;;;;;;22.62;100.00;102314.22;7389791;19;20019;-52
2022/07/11 07:02:42;;;;;;;1.63;1.00;;;;;;;22.67;100.00;102311.19;7394883;19;20014;-53
2022/07/11 07:05:11;;;;;;;1.85;1.10;;;;;;;22.68;100.00;102301.34;7389892;19;20033;-50
2022/07/11 07:07:41;;;;;;;1.13;0.98;;;;;;;22.56;100.00;102301.28;7389842;19;20011;-50
2022/07/11 07:10:11;;;;;;;1.10;0.98;;;;;;;22.67;100.00;102295.16;7388932;19;20026;-49
2022/07/11 07:12:44;;;;;;;1.42;0.90;;;;;;;22.76;100.00;102293.63;7393652;19;20006;-50
2022/07/11 07:15:13;;;;;;;1.23;0.98;;;;;;;22.78;100.00;102284.56;7389235;19;20006;-49
2022/07/11 07:17:42;;;;;;;1.42;1.02;;;;;;;22.76;100.00;102304.31;7394555;19;20015;-50
2022/07/11 07:20:12;;;;;;;1.95;1.00;;;;;;;22.74;100.00;102296.44;7393671;19;20033;-54
2022/07/11 07:22:41;;;;;;;1.65;1.15;;;;;;;22.57;100.00;102299.47;7393913;19;20026;-52
2022/07/11 07:25:11;;;;;;;1.80;0.80;;;;;;;22.57;100.00;102299.47;7391030;19;20459;-51
2022/07/11 07:27:43;;;;;;;1.33;1.02;;;;;;;22.81;100.00;102296.84;7389900;19;20040;-53
2022/07/11 07:30:12;;;;;;;1.80;1.10;;;;;;;22.88;100.00;102291.88;7393179;19;20295;-56
2022/07/11 07:32:41;;;;;;;2.45;1.10;;;;;;;22.92;100.00;102299.56;7393044;19;20014;-56
2022/07/11 07:35:10;;;;;;;1.80;1.13;;;;;;;22.91;100.00;102299.66;7389427;19;20498;-54
2022/07/11 07:37:39;;;;;;;1.50;1.17;;;;;;;22.80;100.00;102293.28;7393012;19;20010;-53
2022/07/11 07:42:52;;;;;;;1.98;1.20;;;;;;;22.90;100.00;102297.97;7396428;19;20034;-48
2022/07/11 07:45:21;;;;;;;1.73;1.00;;;;;;;22.84;100.00;102296.63;7394948;19;20044;-48
2022/07/11 07:47:50;;;;;;;2.30;1.20;;;;;;;22.82;100.00;102298.53;7392769;19;20023;-49
2022/07/11 07:50:19;;;;;;;1.50;0.90;;;;;;;22.82;100.00;102301.19;7390363;19;20022;-50
2022/07/11 07:52:48;;;;;;;1.60;1.02;;;;;;;22.87;100.00;102301.72;7393215;19;20018;-49
2022/07/11 07:55:17;;;;;;;1.58;1.15;;;;;;;23.05;100.00;102304.00;7393997;19;20018;-54
2022/07/11 07:57:46;;;;;;;1.48;0.82;;;;;;;23.30;100.00;102300.41;7392347;19;20021;-51
2022/07/11 08:03:06;;;;;;;1.80;0.85;;;;;;;23.19;100.00;102306.53;7392206;19;20018;-51
2022/07/11 08:05:35;;;;;;;1.17;0.70;;;;;;;23.62;100.00;102303.28;7391632;19;20030;-51
2022/07/11 08:08:05;;;;;;;1.20;0.95;;;;;;;23.71;100.00;102308.91;7392095;19;20003;-54
2022/07/11 08:10:34;;;;;;;2.53;1.10;;;;;;;23.75;100.00;102313.91;7389079;19;20022;-48
2022/07/11 08:13:03;;;;;;;1.10;0.80;;;;;;;23.55;100.00;102317.28;7398829;19;20082;-53
2022/07/11 08:15:34;;;;;;;1.15;0.77;;;;;;;23.67;100.00;102316.34;7396959;19;20498;-53
2022/07/11 08:18:03;;;;;;;1.48;0.80;;;;;;;23.22;100.00;102316.16;7401522;19;20455;-54
2022/07/11 08:20:32;;;;;;;0.90;0.70;;;;;;;23.51;100.00;102319.31;7396308;19;20030;-55
2022/07/11 08:23:03;;;;;;;3.38;0.80;;;;;;;23.73;100.00;102323.91;7401589;19;20026;-49
2022/07/11 08:25:32;;;;;;;0.93;0.82;;;;;;;23.90;100.00;102311.94;7398371;19;20007;-48
2022/07/11 08:28:01;;;;;;;2.60;1.05;;;;;;;24.16;100.00;102320.59;7400461;19;20035;-52
2022/07/11 08:30:30;;;;;;;1.77;0.60;;;;;;;23.84;100.00;102321.25;7404701;19;20010;-52
2022/07/11 08:33:02;;;;;;;3.00;1.13;;;;;;;24.08;100.00;102322.16;7405125;19;20472;-50
2022/07/11 08:35:31;;;;;;;1.30;0.80;;;;;;;24.18;100.00;102324.00;7402030;19;20026;-49
2022/07/11 08:37:59;;;;;;;1.30;0.88;;;;;;;24.26;100.00;102314.53;7402873;19;20840;-48
2022/07/11 08:40:29;;;;;;;1.23;0.80;;;;;;;24.11;100.00;102317.41;7400776;19;20038;-49
2022/07/11 08:42:59;;;;;;;1.33;0.73;;;;;;;23.87;100.00;102316.66;7401400;19;20082;-53
2022/07/11 08:45:32;;;;;;;1.27;0.70;;;;;;;24.22;100.00;102311.22;7396764;19;20071;-54
2022/07/11 08:48:04;;;;;;;0.98;0.80;;;;;;;24.35;100.00;102303.06;7397962;19;20332;-49
2022/07/11 08:50:32;;;;;;;1.25;0.70;;;;;;;24.15;98.08;102304.66;7400231;19;20034;-50
2022/07/11 08:53:02;;;;;;;1.25;0.77;;;;;;;24.22;98.84;102313.91;7400057;19;20017;-50
2022/07/11 08:55:32;;;;;;;4.80;1.33;;;;;;;24.34;98.85;102301.34;7394628;19;20006;-52
2022/07/11 08:58:01;;;;;;;1.15;0.70;;;;;;;23.92;100.00;102309.97;7399795;19;20018;-53
2022/07/11 09:00:31;;;;;;;1.02;0.70;;;;;;;23.89;100.00;102309.38;7399197;19;20014;-55
2022/07/11 09:03:01;;;;;;;2.15;0.90;;;;;;;24.08;100.00;102308.78;7399332;19;20014;-47
2022/07/11 09:05:33;;;;;;;0.70;0.60;;;;;;;24.05;100.00;102307.19;7395200;19;20026;-50
2022/07/11 09:08:02;;;;;;;2.10;0.80;;;;;;;23.13;100.00;102317.72;7395996;19;20022;-49
2022/07/11 09:10:31;;;;;;;1.27;1.00;;;;;;;23.05;100.00;102307.53;7397605;19;20014;-50
2022/07/11 09:13:01;;;;;;;1.90;1.15;;;;;;;22.91;100.00;102308.56;7395597;19;20010;-52
2022/07/11 09:15:37;;;;;;;2.13;1.08;;;;;;;22.70;100.00;102304.78;7395490;19;20022;-50
2022/07/11 09:18:08;;;;;;;1.60;1.17;;;;;;;22.88;100.00;102302.56;7398995;19;20498;-49
2022/07/11 09:26:23;;;;;;;1.50;0.93;;;;;;;23.27;100.00;102311.34;7398051;19;20010;-50
2022/07/11 09:29:03;;;;;;;1.40;0.90;;;;;;;23.19;100.00;102316.41;7395181;19;20407;-49
2022/07/11 09:31:33;;;;;;;1.55;1.23;;;;;;;23.38;100.00;102308.69;7395747;19;20017;-49
2022/07/11 09:34:04;;;;;;;1.52;0.90;;;;;;;23.53;100.00;102312.03;7399954;19;20462;-47
2022/07/11 09:36:47;;;;;;;1.67;1.30;;;;;;;23.35;100.00;102318.78;7395661;19;20022;-49
2022/07/11 09:39:17;;;;;;;2.45;1.45;;;;;;;23.07;100.00;102316.31;7398733;19;20015;-51
2022/07/11 09:41:49;;;;;;;1.58;1.20;;;;;;;23.36;100.00;102315.97;7393836;19;20455;-51
2022/07/11 09:44:19;;;;;;;1.77;1.38;;;;;;;23.52;100.00;102314.84;7395193;19;20022;-55
2022/07/11 09:46:51;;;;;;;2.97;1.60;;;;;;;23.12;100.00;102319.50;7394787;19;20443;-51
2022/07/11 09:49:32;;;;;;;3.15;1.70;;;;;;;23.30;100.00;102327.16;7395440;19;20011;-48
2022/07/11 09:52:13;;;;;;;2.33;1.45;;;;;;;23.43;100.00;102327.09;7394732;19;20459;-48
2022/07/11 09:54:58;;;;;;;2.17;1.40;;;;;;;23.58;100.00;102327.75;7396541;19;20021;-47
2022/07/11 09:57:34;;;;;;;1.42;1.10;;;;;;;23.24;100.00;102322.25;7396948;19;20014;-48
2022/07/11 10:00:04;;;;;;;2.45;1.20;;;;;;;23.44;100.00;102329.66;7397033;19;20018;-52
2022/07/11 10:02:34;;;;;;;2.00;0.93;;;;;;;23.32;100.00;102322.53;7395960;19;20018;-50
2022/07/11 10:05:03;;;;;;;1.58;0.93;;;;;;;23.26;100.00;102326.50;7393966;19;20070;-49
2022/07/11 10:07:35;;;;;;;2.53;1.20;;;;;;;22.98;100.00;102323.19;7396414;19;20014;-50
2022/07/11 10:10:07;;;;;;;2.08;0.80;;;;;;;23.48;100.00;102327.56;7396763;19;20018;-51
2022/07/11 10:12:36;;;;;;;2.13;1.30;;;;;;;23.81;100.00;102321.50;7397250;19;20318;-53
2022/07/11 10:15:08;;;;;;;2.15;1.00;;;;;;;24.02;100.00;102319.00;7393293;19;20518;-48
2022/07/11 10:17:47;;;;;;;2.65;1.30;;;;;;;23.37;100.00;102322.19;7396322;19;20108;-48
2022/07/11 10:20:25;;;;;;;2.17;1.50;;;;;;;23.94;100.00;102310.72;7395888;19;20017;-48
2022/07/11 10:23:08;;;;;;;1.80;1.25;;;;;;;24.29;100.00;102308.91;7397912;19;20007;-55
2022/07/11 10:25:45;;;;;;;3.40;1.10;;;;;;;24.41;99.82;102315.97;7392739;19;20048;-56
2022/07/11 10:28:26;;;;;;;1.50;1.30;;;;;;;24.69;99.02;102314.63;7395965;19;20502;-53
2022/07/11 10:30:59;;;;;;;1.88;1.00;;;;;;;24.81;98.42;102317.31;7392447;19;20370;-50
2022/07/11 10:33:29;;;;;;;3.10;1.10;;;;;;;24.95;95.24;102318.88;7397034;19;20368;-49
2022/07/11 10:36:00;;;;;;;1.48;1.00;;;;;;;24.95;94.27;102318.88;7394835;19;20019;-49
2022/07/11 10:38:31;;;;;;;3.95;1.00;;;;;;;24.66;94.20;102320.25;7398002;19;20118;-52
2022/07/11 10:41:01;;;;;;;2.97;0.95;;;;;;;24.17;97.55;102316.94;7392510;19;20364;-54
2022/07/11 10:43:40;;;;;;;3.55;1.10;;;;;;;24.08;99.96;102319.50;7396923;19;20018;-51
2022/07/11 10:46:11;;;;;;;1.95;0.95;;;;;;;24.30;100.00;102321.31;7390830;19;20042;-50
2022/07/11 10:48:58;;;;;;;1.63;0.90;;;;;;;23.90;100.00;102329.78;7390841;19;20025;-51
2022/07/11 10:51:36;;;;;;;1.27;1.00;;;;;;;23.99;100.00;102327.25;7391946;19;20182;-52
2022/07/11 10:54:30;;;;;;;2.05;1.00;;;;;;;23.81;100.00;102324.16;7390595;19;20353;-50
2022/07/11 10:57:12;;;;;;;0.70;0.60;;;;;;;24.21;100.00;102333.63;7393765;19;20007;-50
2022/07/11 10:59:59;;;;;;;2.97;1.30;;;;;;;24.68;97.46;102328.16;7394075;19;20014;-52
2022/07/11 11:02:29;;;;;;;0.80;0.70;;;;;;;24.94;96.33;102327.88;7392433;19;20480;-51
2022/07/11 11:05:02;;;;;;;0.82;0.80;;;;;;;25.06;93.91;102329.56;7394572;19;20424;-53
2022/07/11 11:07:40;;;;;;;;;;;;;;;24.98;96.16;102323.97;7394110;19;20049;-53
2022/07/11 11:10:53;;;;;;;1.40;0.90;;;;;;;24.78;91.18;102325.59;7393174;19;19922;-53
2022/07/11 11:13:23;;;;;;;1.95;0.77;;;;;;;24.70;91.41;102327.06;7395296;19;20090;-54
2022/07/11 11:15:54;;;;;;;1.63;1.17;;;;;;;24.14;97.91;102330.59;7392123;19;20106;-50
2022/07/11 11:18:38;;;;;;;1.05;0.70;;;;;;;24.09;97.82;102324.72;7396189;19;20087;-52
2022/07/11 11:21:22;;;;;;;2.53;0.90;;;;;;;24.02;99.64;102326.19;7390967;19;20075;-54
2022/07/11 11:24:13;;;;;;;1.60;0.88;;;;;;;23.75;100.00;102329.13;7392280;19;20486;-54
2022/07/11 11:26:51;;;;;;;0.93;0.80;;;;;;;23.74;100.00;102328.28;7394571;19;20020;-56
2022/07/11 11:29:25;;;;;;;4.40;2.10;;;;;;;23.77;100.00;102324.50;7393219;19;20007;-50
2022/07/11 11:32:00;;;;;;;1.05;0.90;;;;;;;23.80;100.00;102321.63;7393915;19;20017;-49
2022/07/11 11:34:30;;;;;;;2.15;1.00;;;;;;;23.78;100.00;102327.06;7394626;19;20014;-51
2022/07/11 11:37:01;;;;;;;1.65;1.10;;;;;;;23.80;100.00;102326.97;7396274;19;20018;-51
2022/07/11 11:39:33;;;;;;;5.53;1.50;;;;;;;23.93;100.00;102330.44;7393438;19;20007;-51
2022/07/11 11:42:11;;;;;;;1.60;1.20;;;;;;;23.64;100.00;102324.59;7393533;19;20011;-48
2022/07/11 11:44:58;;;;;;;1.85;1.30;;;;;;;23.78;100.00;102329.72;7396543;19;20050;-54
2022/07/11 11:47:31;;;;;;;1.65;1.23;;;;;;;23.89;100.00;102330.78;7396734;19;20514;-51
2022/07/11 11:50:00;;;;;;;2.90;1.40;;;;;;;24.08;100.00;102328.38;7401129;19;20014;-53
2022/07/11 11:52:30;;;;;;;2.80;1.10;;;;;;;24.25;100.00;102331.56;7399620;19;20007;-49